Forside
METAR-TAF:

METAR-TAF

Lufthavne :

Dallas/Fort Worth International Airport

Dallas / Fort Worth, Texas, USA

Breddekreds: 32-53-49N, længdekreds: 097-01-19W, højde: 183 m

Aktuelle vejr

Denne rapport blev lavet for 48 minutter siden, kl. 09:53 UTC
Vind 8 kt fra nord
Temperatur 19°C
Fugtighed 94%
Tryk 1012 hPa
Sigt: 2.4 km
Overskyet i en højde af 300 ft
let finregn, dis

METAR: KDFW 230953Z 01008KT 1 1/2SM -DZ BR OVC003 19/18 A2988 RMK AO2 DZB10 SLP110 P0000 T01890183 $

Tid: 05:41 (10:41 UTC)

Vejrudsigter

Denne rapport blev lavet for 1 time og 38 minutter siden, kl. 09:03 UTC
Foreløbig gælder fra 23 på 09 UTC til 24 på 12 UTC
Vind 10 kt fra nord
Sigt: 9.7 km
Overskyet i en højde af 400 ft
let finregn, dis
Fra 23 på 1700 UTC
Vind 9 kt fra nord
Sigt: 10 km
Overskyet i en højde af 900 ft

TAF: KDFW 230903Z 2309/2412 01010KT 6SM -DZ BR OVC004 FM231700 01009KT P6SM OVC009

Vejrobservationer og prognoser fra mere end 4000 lufthavne (METAR og TAF).

De gule og røde prikker repræsenterer de meteorologiske stationer.

Flyt musen over at se navnet på stationen.

Så klik over at se vejr observationer og prognoser.

At skifte det kort: Klik på de grønne knapper med et sort kors for at zoome ind; på den grønne knap med en bindestreg for at zoome ud; eller på de grønne pile for tilstødende kort.


METAR-TAF: